Time;durP1;ratioP1;P1;durP2;ratioP2;P2;SDS_P1;SDS_P2;PMS_P1;PMS_P2;Temp;Humidity;BMP_temperature;BMP_pressure;BME280_temperature;BME280_humidity;BME280_pressure;Samples;Min_cycle;Max_cycle;Signal;HPM_P1;HPM_P2
2023/12/23 00:00:27;;;;;;;9.43;2.95;;;4.90;99.90;;;;;;5013564;28;20209;-73
2023/12/23 00:02:54;;;;;;;13.07;3.63;;;4.80;99.90;;;;;;5009715;28;20202;-74
2023/12/23 00:05:21;;;;;;;11.32;2.17;;;4.80;99.90;;;;;;5014033;28;20228;-74
2023/12/23 00:07:49;;;;;;;8.38;2.47;;;4.80;99.90;;;;;;5012148;28;20225;-75
2023/12/23 00:10:16;;;;;;;9.70;2.10;;;4.90;99.90;;;;;;5014381;28;20197;-73
2023/12/23 00:12:43;;;;;;;15.02;3.30;;;4.90;99.90;;;;;;5009817;28;20302;-73
2023/12/23 00:15:11;;;;;;;8.27;2.65;;;5.00;99.90;;;;;;5008971;28;20209;-74
2023/12/23 00:17:38;;;;;;;10.05;3.40;;;5.10;99.90;;;;;;5011343;28;20252;-72
2023/12/23 00:20:06;;;;;;;10.18;2.75;;;5.10;99.90;;;;;;5004392;28;20205;-74
2023/12/23 00:22:33;;;;;;;7.15;3.00;;;5.10;99.90;;;;;;5005947;28;20700;-74
2023/12/23 00:25:02;;;;;;;18.08;2.40;;;5.10;99.90;;;;;;5012460;28;20201;-73
2023/12/23 00:27:29;;;;;;;10.32;2.08;;;5.10;99.90;;;;;;5013661;28;20645;-73
2023/12/23 00:29:56;;;;;;;13.60;2.15;;;5.10;99.90;;;;;;5010772;28;20201;-74
2023/12/23 00:32:24;;;;;;;10.95;2.25;;;5.10;99.90;;;;;;5008802;28;20790;-72
2023/12/23 00:34:51;;;;;;;13.52;2.30;;;5.10;99.90;;;;;;5006223;28;20630;-71
2023/12/23 00:37:18;;;;;;;16.95;3.38;;;5.10;99.90;;;;;;5006545;28;20254;-72
2023/12/23 00:39:45;;;;;;;6.05;2.38;;;5.10;99.90;;;;;;5010853;28;20633;-73
2023/12/23 00:42:13;;;;;;;17.52;3.63;;;5.10;99.90;;;;;;5006760;28;20260;-74
2023/12/23 00:44:40;;;;;;;9.18;2.45;;;5.10;99.90;;;;;;5015709;28;20205;-74
2023/12/23 00:47:07;;;;;;;11.68;2.20;;;5.10;99.90;;;;;;5006325;28;20276;-71
2023/12/23 00:49:34;;;;;;;9.07;3.10;;;5.10;99.90;;;;;;5013663;28;20214;-73
2023/12/23 00:52:02;;;;;;;10.48;2.35;;;5.00;99.90;;;;;;5010288;28;20269;-74
2023/12/23 00:54:29;;;;;;;7.70;2.40;;;5.00;99.90;;;;;;5007992;28;20205;-72
2023/12/23 00:56:57;;;;;;;10.27;3.10;;;5.00;99.90;;;;;;5011933;28;20271;-74
2023/12/23 00:59:25;;;;;;;7.95;3.13;;;4.90;99.90;;;;;;5017559;28;20205;-71
2023/12/23 01:01:52;;;;;;;7.32;3.08;;;4.90;99.90;;;;;;5012174;28;20240;-70
2023/12/23 01:04:19;;;;;;;10.45;2.53;;;4.90;99.90;;;;;;5026034;28;20201;-70
2023/12/23 01:06:46;;;;;;;17.23;3.78;;;4.90;99.90;;;;;;5014448;28;20229;-70
2023/12/23 01:09:13;;;;;;;13.70;3.40;;;4.90;99.90;;;;;;5019630;28;20205;-73
2023/12/23 01:11:41;;;;;;;12.00;3.10;;;5.00;99.90;;;;;;5013748;28;20544;-73
2023/12/23 01:14:09;;;;;;;6.97;2.05;;;5.00;99.90;;;;;;5013309;28;20730;-71
2023/12/23 01:16:38;;;;;;;10.73;2.70;;;5.00;99.90;;;;;;5011171;28;20585;-74
2023/12/23 01:19:05;;;;;;;10.32;2.67;;;5.00;99.90;;;;;;5012767;28;20232;-71
2023/12/23 01:21:32;;;;;;;4.55;2.50;;;4.90;99.90;;;;;;5012764;28;20201;-74
2023/12/23 01:23:59;;;;;;;14.38;3.08;;;4.90;99.90;;;;;;5012840;28;20237;-70
2023/12/23 01:26:26;;;;;;;10.35;2.33;;;4.80;99.90;;;;;;5005041;28;20221;-73
2023/12/23 01:28:53;;;;;;;10.85;2.97;;;4.80;99.90;;;;;;5005122;28;20209;-71
2023/12/23 01:31:36;;;;;;;16.73;3.58;;;4.80;99.90;;;;;;5018786;23;20255;-82
2023/12/23 01:34:49;;;;;;;14.82;3.92;;;4.90;99.90;;;;;;5028950;28;20212;-82
2023/12/23 01:37:28;;;;;;;16.10;2.95;;;4.90;99.90;;;;;;5030205;28;20274;-82
2023/12/23 01:40:07;;;;;;;17.88;3.20;;;5.00;99.90;;;;;;5012867;28;20185;-81
2023/12/23 01:42:52;;;;;;;17.00;3.30;;;4.90;99.90;;;;;;5035434;28;20313;-81
2023/12/23 01:45:26;;;;;;;12.85;3.00;;;5.00;99.90;;;;;;5034370;28;20249;-82
2023/12/23 01:48:15;;;;;;;9.80;2.15;;;4.90;99.90;;;;;;5016856;28;20251;-81
2023/12/23 01:51:12;;;;;;;7.80;2.40;;;5.00;99.90;;;;;;5023240;28;20229;-81
2023/12/23 01:54:03;;;;;;;11.68;3.05;;;5.10;99.90;;;;;;5029159;28;20229;-83
2023/12/23 01:56:33;;;;;;;9.25;2.53;;;5.10;99.90;;;;;;5029340;28;20205;-81
2023/12/23 02:02:06;;;;;;;19.52;4.63;;;5.10;99.90;;;;;;5010402;28;20225;-81
2023/12/23 02:04:57;;;;;;;12.93;2.78;;;5.10;99.90;;;;;;5016002;28;20201;-83
2023/12/23 02:07:36;;;;;;;8.00;2.55;;;5.10;99.90;;;;;;5009477;28;20577;-82
2023/12/23 02:10:12;;;;;;;19.02;3.80;;;5.20;99.90;;;;;;4994406;28;20635;-82
2023/12/23 02:13:12;;;;;;;16.52;3.40;;;5.20;99.90;;;;;;5016441;28;20236;-82
2023/12/23 02:15:53;;;;;;;14.88;3.80;;;5.30;99.90;;;;;;5016601;28;20216;-82
2023/12/23 02:18:29;;;;;;;15.68;2.65;;;5.30;99.90;;;;;;4995161;28;20276;-82
2023/12/23 02:21:04;;;;;;;11.10;3.20;;;5.50;99.90;;;;;;4999841;28;20288;-82
2023/12/23 02:23:40;;;;;;;20.92;4.60;;;5.40;99.90;;;;;;5015923;28;20207;-82
2023/12/23 02:26:17;;;;;;;6.00;2.17;;;5.40;99.90;;;;;;5010332;28;20288;-80
2023/12/23 02:32:22;;;;;;;13.02;3.13;;;5.50;99.90;;;;;;5004819;28;20280;-83
2023/12/23 02:35:22;;;;;;;13.50;3.80;;;5.40;99.90;;;;;;5005116;28;20213;-82
2023/12/23 02:37:58;;;;;;;12.27;2.83;;;5.50;99.90;;;;;;5016033;28;20209;-82
2023/12/23 02:40:30;;;;;;;4.80;2.50;;;5.60;99.90;;;;;;5018564;28;20213;-82
2023/12/23 02:43:09;;;;;;;8.95;1.75;;;5.50;99.90;;;;;;5016405;28;20208;-82
2023/12/23 02:45:52;;;;;;;11.73;2.70;;;5.60;99.90;;;;;;5011596;28;20205;-83
2023/12/23 02:48:38;;;;;;;14.15;3.40;;;5.50;99.90;;;;;;5017493;28;20229;-82
2023/12/23 02:51:09;;;;;;;13.75;3.88;;;5.60;99.90;;;;;;5011986;28;20315;-82
2023/12/23 02:54:00;;;;;;;15.27;2.50;;;5.60;99.90;;;;;;5010927;28;20256;-82
2023/12/23 02:56:35;;;;;;;4.50;2.53;;;5.50;99.90;;;;;;5013524;28;20206;-81
2023/12/23 03:02:05;;;;;;;9.30;1.88;;;5.80;99.90;;;;;;5080250;27;21081;-75
2023/12/23 03:04:33;;;;;;;13.63;3.05;;;5.60;99.90;;;;;;5071870;28;20273;-75
2023/12/23 03:07:00;;;;;;;9.50;2.17;;;5.70;99.90;;;;;;5062989;28;20309;-72
2023/12/23 03:09:27;;;;;;;10.63;2.17;;;5.70;99.90;;;;;;5072712;28;20260;-73
2023/12/23 03:11:54;;;;;;;9.68;2.15;;;5.70;99.90;;;;;;5062814;28;20195;-72
2023/12/23 03:14:21;;;;;;;15.73;3.42;;;5.70;99.90;;;;;;5073217;28;20203;-72
2023/12/23 03:16:48;;;;;;;12.63;2.53;;;5.60;99.90;;;;;;5078443;28;20292;-75
2023/12/23 03:19:16;;;;;;;13.43;3.00;;;5.60;99.90;;;;;;5062108;28;20715;-75
2023/12/23 03:21:43;;;;;;;12.85;2.13;;;5.60;99.90;;;;;;5066794;28;20220;-72
2023/12/23 03:24:10;;;;;;;8.90;2.38;;;5.50;99.90;;;;;;5069003;28;20632;-73
2023/12/23 03:26:37;;;;;;;16.52;6.00;;;5.50;99.90;;;;;;5068732;28;20315;-74
2023/12/23 03:29:05;;;;;;;9.52;3.10;;;5.60;99.90;;;;;;5070914;28;20209;-72
2023/12/23 03:31:32;;;;;;;10.57;2.75;;;5.50;99.90;;;;;;5060455;28;20282;-75
2023/12/23 03:34:00;;;;;;;16.48;4.85;;;5.60;99.90;;;;;;5064707;28;20220;-72
2023/12/23 03:36:28;;;;;;;10.43;2.80;;;5.60;99.90;;;;;;5065676;28;20272;-74
2023/12/23 03:38:56;;;;;;;12.20;2.88;;;5.60;99.90;;;;;;5067004;28;20211;-72
2023/12/23 03:41:23;;;;;;;20.38;2.75;;;5.60;99.90;;;;;;5064480;28;20234;-74
2023/12/23 03:43:50;;;;;;;14.38;2.83;;;5.60;99.90;;;;;;5073889;28;20338;-75
2023/12/23 03:46:20;;;;;;;12.85;2.13;;;5.50;99.90;;;;;;5062633;28;20249;-71
2023/12/23 03:48:47;;;;;;;8.93;4.07;;;5.40;99.90;;;;;;5068744;28;20246;-75
2023/12/23 03:51:15;;;;;;;20.83;3.28;;;5.50;99.90;;;;;;5071930;28;20237;-74
2023/12/23 03:53:43;;;;;;;8.18;3.08;;;5.50;99.90;;;;;;5067085;28;20196;-74
2023/12/23 03:56:11;;;;;;;12.55;3.10;;;5.50;99.90;;;;;;5065255;28;20210;-75
2023/12/23 03:58:38;;;;;;;20.42;3.10;;;5.50;99.90;;;;;;5067192;28;20203;-73
2023/12/23 04:01:05;;;;;;;16.27;3.28;;;5.50;99.90;;;;;;5056390;28;20255;-72
2023/12/23 04:03:32;;;;;;;7.13;3.10;;;5.70;99.90;;;;;;5065232;28;20261;-73
2023/12/23 04:05:59;;;;;;;7.07;2.53;;;5.60;99.90;;;;;;5061017;28;20223;-73
2023/12/23 04:08:26;;;;;;;11.27;4.38;;;5.60;99.90;;;;;;5070894;28;20688;-73
2023/12/23 04:10:54;;;;;;;15.02;2.53;;;5.60;99.90;;;;;;5072832;28;20203;-75
2023/12/23 04:13:21;;;;;;;11.73;2.30;;;5.60;99.90;;;;;;5050279;28;20257;-75
2023/12/23 04:15:48;;;;;;;9.10;3.10;;;5.50;99.90;;;;;;5050782;28;20204;-71
2023/12/23 04:18:15;;;;;;;12.75;2.85;;;5.50;99.90;;;;;;5044873;28;20259;-73
2023/12/23 04:20:42;;;;;;;8.60;3.28;;;5.50;99.90;;;;;;5053132;28;20281;-74
2023/12/23 04:23:09;;;;;;;24.08;3.55;;;5.50;99.90;;;;;;5049133;28;20267;-70
2023/12/23 04:25:37;;;;;;;11.48;3.28;;;5.60;99.90;;;;;;5051252;28;20261;-71
2023/12/23 04:28:05;;;;;;;15.30;4.05;;;5.60;99.90;;;;;;5050602;28;20340;-72
2023/12/23 04:30:33;;;;;;;11.73;3.85;;;5.60;99.90;;;;;;5044592;28;20197;-74
2023/12/23 04:33:00;;;;;;;10.82;3.17;;;5.60;99.90;;;;;;5057502;28;20588;-72
2023/12/23 04:35:28;;;;;;;11.30;3.22;;;5.50;99.90;;;;;;5050397;28;20203;-70
2023/12/23 04:37:57;;;;;;;9.32;3.40;;;5.60;99.90;;;;;;5069311;28;20741;-71
2023/12/23 04:40:24;;;;;;;12.82;2.80;;;5.60;99.90;;;;;;5058052;28;20281;-70
2023/12/23 04:42:51;;;;;;;9.02;2.47;;;5.60;99.90;;;;;;5059668;28;20208;-70
2023/12/23 04:45:20;;;;;;;17.38;2.67;;;5.50;99.90;;;;;;5047272;28;20634;-69
2023/12/23 04:47:47;;;;;;;6.80;1.70;;;5.50;99.90;;;;;;5044855;28;20229;-72
2023/12/23 04:50:14;;;;;;;6.28;2.15;;;5.60;99.90;;;;;;5049904;28;20204;-70
2023/12/23 04:52:41;;;;;;;4.40;2.15;;;5.60;99.90;;;;;;5045798;28;20203;-72
2023/12/23 04:55:09;;;;;;;11.93;2.30;;;5.60;99.90;;;;;;5052167;28;20207;-72
2023/12/23 04:57:36;;;;;;;11.07;2.42;;;5.60;99.90;;;;;;5053573;28;20227;-73
2023/12/23 05:00:07;;;;;;;11.18;2.60;;;5.60;99.90;;;;;;5064860;28;20265;-74
2023/12/23 05:02:35;;;;;;;8.18;2.38;;;5.60;99.90;;;;;;5048129;28;20275;-71
2023/12/23 05:05:03;;;;;;;14.90;3.05;;;5.60;99.90;;;;;;5045382;28;20258;-72
2023/12/23 05:07:30;;;;;;;7.05;1.70;;;5.70;99.90;;;;;;5051545;28;20560;-75
2023/12/23 05:09:57;;;;;;;7.35;1.75;;;5.70;99.90;;;;;;5059619;28;20666;-71
2023/12/23 05:12:24;;;;;;;5.63;1.60;;;5.60;99.90;;;;;;5056513;28;20688;-70
2023/12/23 05:14:51;;;;;;;5.03;1.70;;;5.70;99.90;;;;;;5052013;28;20205;-72
2023/12/23 05:17:18;;;;;;;9.40;2.50;;;5.60;99.90;;;;;;5050625;28;20319;-73
2023/12/23 05:19:47;;;;;;;10.73;2.50;;;5.60;99.90;;;;;;5045019;28;20204;-71
2023/12/23 05:22:14;;;;;;;7.85;2.35;;;5.50;99.90;;;;;;5050278;28;20266;-72
2023/12/23 05:24:43;;;;;;;10.90;2.42;;;5.60;99.90;;;;;;5051350;28;20250;-72
2023/12/23 05:27:11;;;;;;;5.80;1.85;;;5.60;99.90;;;;;;5053170;28;20303;-72
2023/12/23 05:29:38;;;;;;;10.75;2.80;;;5.60;99.90;;;;;;5047084;28;20236;-74
2023/12/23 05:32:06;;;;;;;8.10;2.28;;;5.60;99.90;;;;;;5044326;28;20278;-73
2023/12/23 05:34:33;;;;;;;13.55;3.33;;;5.60;99.90;;;;;;5050243;28;20208;-72
2023/12/23 05:37:02;;;;;;;16.45;2.58;;;5.60;99.90;;;;;;5051383;28;20220;-74
2023/12/23 05:39:29;;;;;;;10.55;3.03;;;5.60;99.90;;;;;;5049358;28;20261;-68
2023/12/23 05:41:56;;;;;;;8.63;3.33;;;5.60;99.90;;;;;;5053279;28;20220;-70
2023/12/23 05:44:23;;;;;;;13.50;2.20;;;5.60;99.90;;;;;;5052972;28;20666;-73
2023/12/23 05:46:51;;;;;;;11.43;2.65;;;5.60;99.90;;;;;;5045725;28;20228;-70
2023/12/23 05:49:18;;;;;;;21.77;3.17;;;5.60;99.90;;;;;;5048056;28;20239;-70
2023/12/23 05:51:45;;;;;;;19.02;3.00;;;5.50;99.90;;;;;;5052142;28;20200;-70
2023/12/23 05:54:13;;;;;;;11.07;2.13;;;5.50;99.90;;;;;;5051999;28;20262;-73
2023/12/23 05:56:40;;;;;;;8.20;2.40;;;5.50;99.90;;;;;;5059763;28;20245;-71
2023/12/23 05:59:07;;;;;;;9.35;2.10;;;5.50;99.90;;;;;;5056068;28;20203;-73
2023/12/23 06:01:34;;;;;;;11.60;2.50;;;5.50;99.90;;;;;;5053550;28;20748;-70
2023/12/23 06:04:01;;;;;;;9.02;4.25;;;5.50;99.90;;;;;;5044200;28;20659;-70
2023/12/23 06:06:28;;;;;;;13.75;2.15;;;5.50;99.90;;;;;;5045772;28;20223;-72
2023/12/23 06:08:55;;;;;;;12.30;4.07;;;5.50;99.90;;;;;;5050672;28;20242;-71
2023/12/23 06:11:24;;;;;;;8.13;3.05;;;5.50;99.90;;;;;;5043973;28;20200;-73
2023/12/23 06:13:51;;;;;;;13.60;2.70;;;5.50;99.90;;;;;;5051324;28;20265;-76
2023/12/23 06:16:18;;;;;;;12.70;2.38;;;5.50;99.90;;;;;;5045455;28;20659;-73
2023/12/23 06:18:44;;;;;;;7.50;2.10;;;5.50;99.90;;;;;;5043482;28;20581;-73
2023/12/23 06:21:11;;;;;;;15.00;2.75;;;5.60;99.90;;;;;;5057201;28;20720;-72
2023/12/23 06:23:38;;;;;;;10.40;2.30;;;5.60;99.90;;;;;;5042789;28;20200;-69
2023/12/23 06:26:05;;;;;;;8.90;2.33;;;5.50;99.90;;;;;;5051344;28;20208;-73
2023/12/23 06:28:34;;;;;;;9.52;3.00;;;5.50;99.90;;;;;;5050734;28;20196;-70
2023/12/23 06:31:01;;;;;;;7.97;2.58;;;5.50;99.90;;;;;;5042035;28;20246;-72
2023/12/23 06:33:28;;;;;;;2.35;1.55;;;5.50;99.90;;;;;;5048424;28;20208;-71
2023/12/23 06:35:55;;;;;;;8.20;2.53;;;5.60;99.90;;;;;;5043618;28;20274;-72
2023/12/23 06:38:22;;;;;;;4.82;2.13;;;5.50;99.90;;;;;;5047421;28;20270;-73
2023/12/23 06:40:50;;;;;;;10.43;2.80;;;5.50;99.90;;;;;;5051465;28;20287;-71
2023/12/23 06:43:16;;;;;;;8.55;2.00;;;5.50;99.90;;;;;;5062209;28;20622;-72
2023/12/23 06:45:45;;;;;;;14.38;2.80;;;5.50;99.90;;;;;;5052178;28;20192;-71
2023/12/23 06:48:12;;;;;;;9.07;1.80;;;5.50;99.90;;;;;;5051344;28;20554;-72
2023/12/23 06:50:39;;;;;;;4.50;1.80;;;5.40;99.90;;;;;;5055925;28;20251;-74
2023/12/23 06:53:08;;;;;;;4.25;1.67;;;5.40;99.90;;;;;;5052416;28;20273;-75
2023/12/23 06:55:35;;;;;;;5.28;1.77;;;5.50;99.90;;;;;;5041936;28;20262;-71
2023/12/23 06:58:02;;;;;;;7.93;1.85;;;5.50;99.90;;;;;;5050706;28;20690;-73
2023/12/23 07:00:29;;;;;;;10.65;2.78;;;5.50;99.90;;;;;;5051200;28;20724;-76
2023/12/23 07:02:59;;;;;;;7.18;2.22;;;5.50;99.90;;;;;;5059115;28;20223;-73
2023/12/23 07:05:26;;;;;;;11.52;2.80;;;5.50;99.90;;;;;;5055091;28;20203;-73
2023/12/23 07:07:53;;;;;;;11.23;2.75;;;5.50;99.90;;;;;;5057240;28;20223;-74
2023/12/23 07:10:20;;;;;;;4.82;1.92;;;5.50;99.90;;;;;;5049166;28;20207;-75
2023/12/23 07:12:47;;;;;;;7.50;2.00;;;5.60;99.90;;;;;;5060400;28;20200;-73
2023/12/23 07:15:14;;;;;;;8.73;2.28;;;5.60;99.90;;;;;;5059645;28;20199;-70
2023/12/23 07:17:41;;;;;;;8.98;2.88;;;5.60;99.90;;;;;;5047969;28;20547;-71
2023/12/23 07:20:10;;;;;;;5.85;2.45;;;5.60;99.90;;;;;;5048075;28;20265;-73
2023/12/23 07:22:38;;;;;;;6.38;2.22;;;5.70;99.90;;;;;;5058274;28;20216;-72
2023/12/23 07:25:06;;;;;;;3.95;1.83;;;5.60;99.90;;;;;;5043270;28;20201;-72
2023/12/23 07:27:33;;;;;;;4.78;1.88;;;5.60;99.90;;;;;;5046281;28;20274;-71
2023/12/23 07:30:00;;;;;;;3.00;2.08;;;5.70;99.90;;;;;;5044033;28;20211;-71
2023/12/23 07:32:27;;;;;;;4.40;2.22;;;5.60;99.90;;;;;;5055449;28;20232;-72
2023/12/23 07:34:54;;;;;;;3.55;1.60;;;5.60;99.90;;;;;;5052581;28;20254;-73
2023/12/23 07:37:23;;;;;;;4.88;1.77;;;5.60;99.90;;;;;;5044069;28;20255;-72
2023/12/23 07:39:50;;;;;;;5.25;1.63;;;5.60;99.90;;;;;;5054410;28;20204;-72
2023/12/23 07:42:17;;;;;;;9.32;2.13;;;5.60;99.90;;;;;;5045341;28;20271;-72
2023/12/23 07:44:44;;;;;;;8.32;2.10;;;5.60;99.90;;;;;;5055030;28;20196;-72
2023/12/23 07:47:12;;;;;;;6.57;1.60;;;5.50;99.90;;;;;;5051715;28;20349;-71
2023/12/23 07:49:39;;;;;;;8.48;1.75;;;5.60;99.90;;;;;;5050115;28;20212;-74
2023/12/23 07:52:07;;;;;;;5.22;2.55;;;5.50;99.90;;;;;;5055542;28;20242;-68
2023/12/23 07:54:36;;;;;;;5.45;1.55;;;5.50;99.90;;;;;;5048248;28;20196;-74
2023/12/23 07:57:03;;;;;;;1.95;1.20;;;5.50;99.90;;;;;;5048912;28;20227;-76
2023/12/23 08:23:05;;;;;;;3.17;1.45;;;5.60;99.90;;;;;;5004910;28;20240;-84
2023/12/23 08:25:36;;;;;;;6.95;1.92;;;5.60;99.90;;;;;;5003037;28;20193;-84
2023/12/23 09:23:03;;;;;;;4.90;1.55;;;6.10;99.90;;;;;;4855575;29;20251;-81
2023/12/23 09:32:58;;;;;;;2.58;1.33;;;5.90;99.90;;;;;;4889669;29;20265;-87
2023/12/23 09:49:37;;;;;;;1.65;1.27;;;6.00;99.90;;;;;;4922333;29;20295;-82
2023/12/23 09:52:32;;;;;;;2.10;1.73;;;5.90;99.90;;;;;;4899235;29;20233;-81
2023/12/23 09:58:08;;;;;;;4.63;2.15;;;5.90;99.90;;;;;;4926575;29;20272;-82
2023/12/23 10:10:40;;;;;;;4.88;2.35;;;6.10;99.90;;;;;;4939472;29;20325;-85
2023/12/23 10:20:08;;;;;;;2.25;1.48;;;6.10;99.90;;;;;;4993818;28;20241;-87
2023/12/23 10:26:06;;;;;;;1.50;1.40;;;6.40;99.90;;;;;;4901758;29;20247;-87
2023/12/23 10:31:11;;;;;;;3.25;1.98;;;6.50;99.90;;;;;;5046637;28;20223;-73
2023/12/23 10:33:45;;;;;;;7.75;1.30;;;6.50;99.90;;;;;;5049887;28;20602;-76
2023/12/23 10:36:13;;;;;;;1.55;1.45;;;6.50;99.90;;;;;;5047234;28;20283;-72
2023/12/23 10:38:47;;;;;;;2.50;1.10;;;6.50;99.90;;;;;;5047780;28;20261;-72
2023/12/23 10:41:25;;;;;;;2.72;2.17;;;6.60;99.90;;;;;;5046791;28;20555;-73
2023/12/23 10:43:54;;;;;;;1.90;1.40;;;6.70;99.90;;;;;;5029312;28;20220;-73
2023/12/23 10:46:22;;;;;;;2.55;1.73;;;6.70;99.90;;;;;;5050370;28;20226;-73
2023/12/23 10:48:50;;;;;;;3.72;1.60;;;6.70;99.90;;;;;;5049001;28;20274;-75
2023/12/23 10:51:19;;;;;;;2.03;1.30;;;6.80;99.90;;;;;;5052514;28;20208;-73
2023/12/23 10:53:46;;;;;;;2.35;1.40;;;6.90;99.90;;;;;;5049479;28;20570;-74
2023/12/23 10:56:16;;;;;;;3.95;1.92;;;6.90;99.90;;;;;;5042321;28;20197;-76
2023/12/23 10:58:51;;;;;;;2.50;1.67;;;6.90;99.90;;;;;;5047109;28;20208;-76
2023/12/23 11:01:21;;;;;;;5.10;3.28;;;6.80;99.90;;;;;;5045369;28;20236;-77
2023/12/23 11:03:54;;;;;;;2.28;2.00;;;6.80;99.90;;;;;;5049959;28;20219;-73
2023/12/23 11:06:22;;;;;;;3.35;2.33;;;6.90;99.90;;;;;;5046932;28;20205;-73
2023/12/23 11:08:51;;;;;;;4.82;1.63;;;7.00;99.90;;;;;;5049793;28;20762;-75
2023/12/23 11:11:20;;;;;;;1.80;1.45;;;7.00;99.90;;;;;;5052703;28;20200;-73
2023/12/23 11:13:47;;;;;;;2.75;1.60;;;7.00;99.90;;;;;;5051313;28;20200;-75
2023/12/23 11:16:17;;;;;;;2.03;1.83;;;6.90;99.90;;;;;;5050749;28;20196;-74
2023/12/23 11:18:44;;;;;;;1.70;1.35;;;6.90;99.90;;;;;;5060327;28;20210;-76
2023/12/23 11:21:17;;;;;;;2.10;1.55;;;6.90;99.90;;;;;;5060929;28;20196;-76
2023/12/23 11:23:44;;;;;;;2.42;1.80;;;6.80;99.90;;;;;;5055014;28;20240;-75
2023/12/23 11:26:42;;;;;;;4.28;1.60;;;6.90;99.90;;;;;;5063876;28;20200;-72
2023/12/23 11:29:14;;;;;;;3.53;1.65;;;6.70;99.90;;;;;;5048530;28;20262;-72
2023/12/23 11:31:41;;;;;;;2.05;1.15;;;6.80;99.90;;;;;;5061949;28;20552;-75
2023/12/23 11:34:16;;;;;;;1.35;0.90;;;6.80;99.90;;;;;;5047038;28;20196;-68
2023/12/23 11:36:44;;;;;;;1.10;1.00;;;6.90;99.90;;;;;;5052524;28;20227;-69
2023/12/23 11:39:13;;;;;;;1.42;1.00;;;6.80;99.90;;;;;;5052607;28;20616;-69
2023/12/23 11:41:43;;;;;;;1.77;1.10;;;6.80;99.90;;;;;;5055103;28;20211;-70
2023/12/23 11:44:11;;;;;;;3.58;1.10;;;6.70;99.90;;;;;;5046807;28;20231;-74
2023/12/23 11:46:40;;;;;;;1.60;1.00;;;6.70;99.90;;;;;;5048971;28;20220;-74
2023/12/23 11:49:10;;;;;;;2.10;1.15;;;6.70;99.90;;;;;;5046715;28;20729;-73
2023/12/23 11:51:38;;;;;;;1.70;1.58;;;6.80;99.90;;;;;;5051328;28;20323;-72
2023/12/23 11:54:05;;;;;;;2.22;1.65;;;6.90;99.90;;;;;;5051879;28;20265;-70
2023/12/23 11:56:32;;;;;;;1.67;1.05;;;7.00;99.90;;;;;;5043128;28;20225;-72
2023/12/23 11:59:01;;;;;;;5.78;1.67;;;7.10;99.90;;;;;;5053356;28;20228;-71
2023/12/23 12:01:29;;;;;;;1.70;1.48;;;7.20;99.90;;;;;;5050696;28;20258;-71
2023/12/23 12:03:55;;;;;;;2.70;1.17;;;7.10;99.90;;;;;;5061502;28;20770;-69
2023/12/23 12:06:24;;;;;;;1.80;1.00;;;7.20;99.90;;;;;;5046428;28;20371;-72
2023/12/23 12:08:51;;;;;;;8.35;4.57;;;7.10;99.90;;;;;;5051167;28;20219;-71
2023/12/23 12:11:18;;;;;;;2.72;0.98;;;7.10;99.90;;;;;;5045895;28;20232;-75
2023/12/23 12:13:46;;;;;;;3.78;1.13;;;7.10;99.90;;;;;;5052330;28;20200;-72
2023/12/23 12:16:14;;;;;;;2.58;1.60;;;7.20;99.90;;;;;;5049179;28;20200;-74
2023/12/23 12:18:42;;;;;;;1.42;0.80;;;7.10;99.90;;;;;;5060413;28;20270;-74
2023/12/23 12:21:09;;;;;;;1.60;1.35;;;7.10;99.90;;;;;;5053488;28;20283;-72
2023/12/23 12:23:36;;;;;;;1.70;1.05;;;7.00;99.90;;;;;;5058187;28;20251;-72
2023/12/23 12:26:03;;;;;;;3.75;1.50;;;7.00;99.90;;;;;;5049543;28;20212;-75
2023/12/23 12:28:31;;;;;;;3.05;1.08;;;6.90;99.90;;;;;;5054525;28;20662;-72
2023/12/23 12:31:11;;;;;;;1.52;1.23;;;7.00;99.90;;;;;;5051996;28;20587;-73
2023/12/23 12:33:42;;;;;;;1.15;1.00;;;6.90;99.90;;;;;;5051797;28;20196;-73
2023/12/23 12:36:13;;;;;;;1.27;1.02;;;6.90;99.90;;;;;;5043330;28;20236;-73
2023/12/23 12:38:41;;;;;;;1.13;1.05;;;6.80;99.90;;;;;;5052613;28;20562;-73
2023/12/23 12:41:09;;;;;;;16.23;12.60;;;6.80;99.90;;;;;;5049484;28;20207;-73
2023/12/23 12:43:38;;;;;;;3.22;2.85;;;6.80;99.90;;;;;;5053235;28;20227;-72
2023/12/23 12:46:06;;;;;;;2.08;1.60;;;6.80;99.90;;;;;;5045857;28;20311;-74
2023/12/23 12:48:33;;;;;;;3.28;1.40;;;6.90;99.90;;;;;;5054569;28;20654;-74
2023/12/23 12:51:02;;;;;;;2.33;1.50;;;7.00;99.90;;;;;;5046077;28;20224;-73
2023/12/23 12:53:30;;;;;;;2.50;1.55;;;6.90;99.90;;;;;;5054256;28;20200;-74
2023/12/23 12:56:07;;;;;;;4.38;2.40;;;7.00;99.90;;;;;;5053644;28;20240;-73
2023/12/23 12:58:34;;;;;;;2.97;1.50;;;7.10;99.90;;;;;;5026702;28;20230;-71
2023/12/23 13:01:01;;;;;;;2.58;2.38;;;7.10;99.90;;;;;;5048232;28;20644;-72
2023/12/23 13:03:28;;;;;;;2.58;1.63;;;7.10;99.90;;;;;;5048111;28;20299;-73
2023/12/23 13:05:55;;;;;;;2.35;1.70;;;7.00;99.90;;;;;;5054845;28;20207;-73
2023/12/23 13:08:24;;;;;;;3.40;2.00;;;7.00;99.90;;;;;;5050951;28;20223;-73
2023/12/23 13:10:50;;;;;;;2.03;1.80;;;7.10;99.90;;;;;;5055360;28;20809;-71
2023/12/23 13:13:17;;;;;;;2.17;1.95;;;7.10;99.90;;;;;;5045849;28;20200;-72
2023/12/23 13:15:45;;;;;;;2.38;1.80;;;7.10;99.90;;;;;;5052901;28;20204;-75
2023/12/23 13:18:13;;;;;;;1.85;1.75;;;6.90;99.90;;;;;;5054849;28;20220;-72
2023/12/23 13:20:40;;;;;;;4.00;2.05;;;6.90;99.90;;;;;;5053904;28;20643;-73
2023/12/23 13:23:07;;;;;;;3.03;2.83;;;7.00;99.90;;;;;;5053983;28;20275;-71
2023/12/23 13:25:36;;;;;;;3.15;1.92;;;7.00;99.90;;;;;;5050636;28;20262;-71
2023/12/23 13:28:03;;;;;;;1.70;1.60;;;7.00;99.90;;;;;;5060214;28;20234;-74
2023/12/23 13:30:30;;;;;;;2.10;1.77;;;7.10;99.90;;;;;;5053288;28;20671;-74
2023/12/23 13:32:57;;;;;;;3.03;2.65;;;7.10;99.90;;;;;;5053196;28;20247;-72
2023/12/23 13:35:24;;;;;;;2.10;2.00;;;7.10;99.90;;;;;;5056810;28;20576;-72
2023/12/23 13:37:52;;;;;;;1.60;1.50;;;7.10;99.90;;;;;;5055787;28;20310;-72
2023/12/23 13:40:19;;;;;;;3.50;3.20;;;7.10;99.90;;;;;;5051847;28;20674;-75
2023/12/23 13:42:48;;;;;;;3.90;1.90;;;7.00;99.90;;;;;;5057636;28;20731;-72
2023/12/23 13:45:15;;;;;;;2.00;1.80;;;6.90;99.90;;;;;;5053165;28;21627;-74
2023/12/23 13:47:42;;;;;;;3.25;2.95;;;6.90;99.90;;;;;;5045613;28;20247;-73
2023/12/23 13:50:10;;;;;;;2.55;2.13;;;7.00;99.90;;;;;;5051741;28;20658;-72
2023/12/23 13:52:39;;;;;;;3.10;2.60;;;7.00;99.90;;;;;;5053370;28;20658;-71
2023/12/23 13:55:07;;;;;;;4.68;3.03;;;7.00;99.90;;;;;;5051881;28;20639;-71
2023/12/23 13:57:34;;;;;;;3.15;2.85;;;7.00;99.90;;;;;;5051538;28;20255;-70
2023/12/23 14:03:26;;;;;;;4.03;3.05;;;6.90;99.90;;;;;;5056190;28;20234;-83
2023/12/23 14:09:14;;;;;;;2.55;2.35;;;6.90;99.90;;;;;;5066120;28;20227;-84
2023/12/23 14:18:24;;;;;;;2.80;2.00;;;6.90;99.90;;;;;;5053909;28;20200;-84
2023/12/23 14:24:30;;;;;;;6.05;2.72;;;6.90;99.90;;;;;;5076734;28;20223;-84
2023/12/23 14:27:00;;;;;;;2.33;1.75;;;6.90;99.90;;;;;;5079934;28;20212;-84
2023/12/23 14:29:59;;;;;;;2.05;1.70;;;6.90;99.90;;;;;;5071505;28;20215;-83
2023/12/23 14:36:02;;;;;;;2.42;2.22;;;6.80;99.90;;;;;;5064951;28;20262;-83
2023/12/23 14:38:57;;;;;;;3.15;2.80;;;6.80;99.90;;;;;;5062499;28;20215;-84
2023/12/23 14:41:53;;;;;;;2.88;2.38;;;6.80;99.90;;;;;;5063266;28;20219;-83
2023/12/23 14:44:25;;;;;;;3.85;2.55;;;6.90;99.90;;;;;;5054936;28;20207;-84
2023/12/23 14:46:53;;;;;;;2.90;2.58;;;6.70;99.90;;;;;;5068565;28;20208;-83
2023/12/23 14:49:24;;;;;;;4.95;2.90;;;6.70;99.90;;;;;;5075229;28;20192;-83
2023/12/23 14:51:53;;;;;;;2.70;2.50;;;6.70;99.90;;;;;;5075850;28;20257;-83
2023/12/23 14:54:24;;;;;;;2.30;1.92;;;6.70;99.90;;;;;;5066534;28;20195;-82
2023/12/23 14:56:53;;;;;;;2.85;2.60;;;6.80;99.90;;;;;;5070499;28;20211;-82
2023/12/23 14:59:21;;;;;;;4.43;3.25;;;6.90;99.90;;;;;;5068707;28;20208;-83
2023/12/23 15:01:51;;;;;;;3.03;2.22;;;6.80;99.90;;;;;;5074785;28;20223;-83
2023/12/23 15:04:18;;;;;;;4.40;4.00;;;6.90;99.90;;;;;;5063255;28;20220;-83
2023/12/23 15:06:51;;;;;;;3.83;3.42;;;6.80;99.90;;;;;;5055968;28;20523;-84
2023/12/23 15:09:23;;;;;;;3.33;3.03;;;7.00;99.90;;;;;;5074764;28;20207;-83
2023/12/23 15:11:55;;;;;;;3.67;3.38;;;6.90;99.90;;;;;;5069808;28;20220;-84
2023/12/23 15:14:28;;;;;;;4.90;4.40;;;7.00;99.90;;;;;;5076066;28;20199;-84
2023/12/23 15:17:01;;;;;;;4.07;3.67;;;6.90;99.90;;;;;;5065411;28;20262;-85
2023/12/23 15:19:30;;;;;;;5.13;4.18;;;6.80;99.90;;;;;;5066787;28;20207;-84
2023/12/23 15:21:58;;;;;;;4.32;3.92;;;7.00;99.90;;;;;;5067243;28;20252;-84
2023/12/23 15:24:25;;;;;;;4.70;4.30;;;6.90;99.90;;;;;;5066218;28;20228;-84
2023/12/23 15:26:57;;;;;;;5.80;4.88;;;6.90;99.90;;;;;;5066757;28;20180;-84
2023/12/23 15:29:27;;;;;;;6.40;5.15;;;6.90;99.90;;;;;;5072943;28;20215;-82
2023/12/23 15:31:55;;;;;;;5.38;4.88;;;7.00;99.90;;;;;;5066115;28;20223;-82
2023/12/23 15:34:23;;;;;;;4.55;4.15;;;6.90;99.90;;;;;;5060609;28;20264;-83
2023/12/23 15:36:59;;;;;;;4.70;4.25;;;6.90;99.90;;;;;;5073086;28;20603;-82
2023/12/23 15:39:40;;;;;;;10.40;7.63;;;6.90;99.90;;;;;;5064330;28;20207;-83
2023/12/23 15:42:20;;;;;;;5.45;4.85;;;6.90;99.90;;;;;;5078879;28;20227;-83